Time;durP1;ratioP1;P1;durP2;ratioP2;P2;SDS_P1;SDS_P2;PMS_P1;PMS_P2;Temp;Humidity;BMP_temperature;BMP_pressure;BME280_temperature;BME280_humidity;BME280_pressure;Samples;Min_cycle;Max_cycle;Signal;HPM_P1;HPM_P2
2022/01/16 00:07:03;;;;;;;26.75;6.05;;;2.50;99.90;;;;;;20588331;28;20370;-44
2022/01/16 00:17:04;;;;;;;27.23;8.23;;;2.60;99.90;;;;;;20589181;28;20101;-44
2022/01/16 00:27:05;;;;;;;33.20;7.05;;;2.60;99.90;;;;;;20586301;28;20566;-44
2022/01/16 00:37:06;;;;;;;27.30;6.40;;;2.50;99.90;;;;;;20584650;28;20038;-44
2022/01/16 00:47:07;;;;;;;28.73;5.68;;;2.70;99.90;;;;;;20586503;28;20144;-44
2022/01/16 00:57:07;;;;;;;26.33;6.55;;;2.60;99.90;;;;;;20584478;28;20163;-44
2022/01/16 01:07:08;;;;;;;21.15;7.15;;;2.70;99.90;;;;;;20580076;28;20422;-44
2022/01/16 01:17:13;;;;;;;27.43;7.73;;;2.70;99.90;;;;;;20581382;28;20454;-44
2022/01/16 01:27:23;;;;;;;29.98;8.43;;;2.80;99.90;;;;;;20580372;28;20306;-44
2022/01/16 01:37:24;;;;;;;26.85;7.10;;;2.80;99.90;;;;;;20577537;28;20042;-44
2022/01/16 01:57:44;;;;;;;33.42;8.00;;;2.90;99.90;;;;;;20577530;28;20493;-44
2022/01/16 02:07:47;;;;;;;28.50;7.28;;;3.00;99.90;;;;;;20579422;28;20498;-44
2022/01/16 02:28:20;;;;;;;42.67;8.93;;;3.10;99.90;;;;;;20574866;28;20046;-44
2022/01/16 02:38:22;;;;;;;34.03;8.73;;;3.20;99.90;;;;;;20562023;28;20043;-44
2022/01/16 02:48:22;;;;;;;26.85;8.07;;;3.20;99.90;;;;;;20570465;28;20054;-44
2022/01/16 02:58:23;;;;;;;35.47;9.45;;;3.40;99.90;;;;;;20573698;28;20582;-44
2022/01/16 03:08:24;;;;;;;37.90;9.27;;;3.40;99.90;;;;;;20577866;28;20054;-44
2022/01/16 03:28:26;;;;;;;41.45;9.82;;;3.50;99.90;;;;;;20571818;28;20054;-44
2022/01/16 03:38:26;;;;;;;33.75;9.70;;;3.60;99.90;;;;;;22200194;23;20123;-43
2022/01/16 03:48:27;;;;;;;40.33;10.83;;;3.60;99.90;;;;;;20481788;28;20899;-43
2022/01/16 03:58:28;;;;;;;41.90;10.48;;;3.70;99.90;;;;;;20499667;28;20708;-43
2022/01/16 04:08:29;;;;;;;35.05;10.27;;;3.70;99.90;;;;;;20504024;28;20602;-44
2022/01/16 04:18:29;;;;;;;42.88;11.45;;;3.70;99.90;;;;;;20500009;28;20049;-43
2022/01/16 04:28:30;;;;;;;46.73;11.07;;;3.70;99.90;;;;;;20504689;28;20062;-44
2022/01/16 04:38:33;;;;;;;44.30;10.00;;;3.70;99.90;;;;;;20500509;28;20691;-44
2022/01/16 04:59:31;;;;;;;27.27;9.82;;;3.70;99.90;;;;;;20494107;28;20320;-43
2022/01/16 05:09:31;;;;;;;25.85;9.48;;;3.70;99.90;;;;;;20498800;28;20050;-44
2022/01/16 05:19:32;;;;;;;29.75;10.50;;;3.70;99.90;;;;;;20513761;28;20055;-43
2022/01/16 05:29:33;;;;;;;23.47;7.43;;;3.70;99.90;;;;;;20502054;28;20057;-43
2022/01/16 05:39:34;;;;;;;23.65;8.30;;;3.70;99.90;;;;;;20498354;28;20299;-43
2022/01/16 05:49:35;;;;;;;33.03;9.30;;;3.70;99.90;;;;;;20496639;28;20049;-44
2022/01/16 05:59:36;;;;;;;25.07;9.27;;;3.80;99.90;;;;;;20504557;28;20046;-43
2022/01/16 06:09:36;;;;;;;21.17;7.97;;;3.80;99.90;;;;;;20485335;28;20318;-43
2022/01/16 06:19:37;;;;;;;20.20;7.78;;;3.90;99.90;;;;;;20501449;28;20282;-43
2022/01/16 06:29:37;;;;;;;19.17;7.03;;;3.90;99.90;;;;;;20507741;28;20051;-44
2022/01/16 06:39:38;;;;;;;18.00;6.43;;;4.00;99.90;;;;;;20495829;28;20066;-44
2022/01/16 06:49:39;;;;;;;22.60;8.63;;;4.10;99.90;;;;;;20483987;28;20051;-44
2022/01/16 06:59:40;;;;;;;21.70;6.50;;;4.30;99.90;;;;;;20496937;28;20043;-44
2022/01/16 07:09:41;;;;;;;18.48;6.05;;;4.40;99.90;;;;;;20502464;28;20290;-43
2022/01/16 07:19:41;;;;;;;12.68;4.78;;;4.50;99.90;;;;;;20509622;28;20069;-44
2022/01/16 07:29:42;;;;;;;13.43;4.60;;;4.70;99.90;;;;;;20511853;28;20047;-43
2022/01/16 07:39:42;;;;;;;13.07;4.53;;;4.90;99.90;;;;;;20502940;28;20314;-43
2022/01/16 07:49:43;;;;;;;7.37;2.93;;;5.00;99.90;;;;;;20479976;28;20377;-44
2022/01/16 07:59:44;;;;;;;6.43;2.53;;;5.10;99.90;;;;;;20505123;28;20290;-43
2022/01/16 08:09:44;;;;;;;7.40;2.87;;;5.40;99.90;;;;;;20490563;28;20313;-44
2022/01/16 08:19:45;;;;;;;5.40;2.25;;;5.70;99.90;;;;;;20479501;28;20423;-44
2022/01/16 08:29:48;;;;;;;8.20;2.08;;;5.90;99.90;;;;;;20501674;28;20077;-44
2022/01/16 08:39:49;;;;;;;4.30;2.15;;;5.90;99.90;;;;;;20492957;28;20047;-43
2022/01/16 08:49:50;;;;;;;19.80;3.23;;;6.00;99.90;;;;;;20467135;28;20206;-43
2022/01/16 08:59:51;;;;;;;6.03;3.00;;;6.10;99.90;;;;;;20478046;28;20290;-43
2022/01/16 09:09:51;;;;;;;10.83;2.67;;;6.30;99.90;;;;;;20496745;28;20299;-44
2022/01/16 09:19:52;;;;;;;10.18;2.70;;;6.30;99.90;;;;;;20481877;28;20381;-44
2022/01/16 09:29:53;;;;;;;9.35;3.10;;;6.40;99.90;;;;;;20491556;28;20058;-43
2022/01/16 09:39:54;;;;;;;10.25;3.97;;;6.50;99.90;;;;;;20482739;28;20046;-44
2022/01/16 09:49:55;;;;;;;15.88;4.25;;;6.60;99.90;;;;;;20475334;28;20043;-43
2022/01/16 09:59:56;;;;;;;17.13;6.10;;;6.40;99.90;;;;;;20477916;28;20069;-43
2022/01/16 10:10:07;;;;;;;18.48;7.10;;;6.20;99.90;;;;;;20479997;28;20407;-44
2022/01/16 10:20:09;;;;;;;26.83;7.78;;;6.10;99.90;;;;;;20503703;28;20058;-44
2022/01/16 10:30:14;;;;;;;22.17;8.50;;;6.00;99.90;;;;;;20454039;28;20499;-44
2022/01/16 10:40:18;;;;;;;31.83;8.80;;;6.00;99.90;;;;;;20490819;28;20070;-44
2022/01/16 10:50:35;;;;;;;20.45;8.30;;;6.00;99.90;;;;;;20470077;28;20073;-44
2022/01/16 11:00:39;;;;;;;28.60;10.10;;;5.90;99.90;;;;;;20462137;28;20070;-44
2022/01/16 11:10:42;;;;;;;39.88;11.75;;;5.80;99.90;;;;;;20457865;28;20664;-44
2022/01/16 11:20:52;;;;;;;26.33;9.73;;;5.90;99.90;;;;;;20461225;28;20126;-44
2022/01/16 11:30:56;;;;;;;27.10;8.25;;;5.90;99.90;;;;;;20478646;28;20157;-44
2022/01/16 11:41:24;;;;;;;29.52;9.60;;;5.80;99.90;;;;;;20467453;28;20055;-44
2022/01/16 11:51:35;;;;;;;38.53;9.75;;;5.80;99.90;;;;;;20478366;28;20075;-44
2022/01/16 12:01:45;;;;;;;27.95;8.85;;;5.90;99.90;;;;;;20493409;28;20050;-44
2022/01/16 12:11:46;;;;;;;31.33;9.18;;;6.00;99.90;;;;;;20508663;28;20128;-44
2022/01/16 12:21:53;;;;;;;30.40;9.07;;;6.20;99.90;;;;;;20516286;28;20042;-44
2022/01/16 12:31:54;;;;;;;28.88;9.23;;;6.30;99.90;;;;;;20462203;28;20074;-44
2022/01/16 12:41:56;;;;;;;30.48;9.38;;;6.50;99.90;;;;;;20484798;28;20042;-44
2022/01/16 12:51:58;;;;;;;27.85;7.72;;;6.60;99.90;;;;;;20463706;28;20051;-44
2022/01/16 13:02:04;;;;;;;23.15;8.02;;;6.70;99.90;;;;;;20467545;28;20089;-44
2022/01/16 13:12:07;;;;;;;24.45;7.30;;;6.90;99.90;;;;;;20449973;28;20146;-44
2022/01/16 13:32:14;;;;;;;16.67;6.45;;;7.00;99.90;;;;;;20466760;28;20282;-44
2022/01/16 13:42:37;;;;;;;18.55;5.18;;;7.00;99.90;;;;;;20461800;28;20129;-44
2022/01/16 13:52:48;;;;;;;18.70;5.53;;;7.10;99.90;;;;;;20465845;28;20459;-44
2022/01/16 14:02:49;;;;;;;11.60;4.35;;;7.10;99.90;;;;;;20446100;28;20045;-44
2022/01/16 14:12:55;;;;;;;10.13;4.47;;;7.10;99.90;;;;;;20475226;28;20034;-44
2022/01/16 14:23:07;;;;;;;15.90;4.90;;;7.10;99.90;;;;;;20457860;28;20043;-44
2022/01/16 14:33:09;;;;;;;14.50;5.10;;;7.10;99.90;;;;;;20457342;28;20395;-44
2022/01/16 14:43:16;;;;;;;14.77;6.22;;;7.10;99.90;;;;;;20465669;28;20042;-44
2022/01/16 14:53:19;;;;;;;19.58;8.43;;;7.10;99.90;;;;;;20463658;28;20133;-44
2022/01/16 15:03:20;;;;;;;17.88;6.93;;;7.10;99.90;;;;;;20468610;28;20055;-44
2022/01/16 15:13:25;;;;;;;19.45;5.57;;;7.20;99.90;;;;;;20456629;28;20039;-44
2022/01/16 15:23:26;;;;;;;16.20;6.03;;;7.40;99.90;;;;;;20469572;28;20495;-44
2022/01/16 15:33:28;;;;;;;10.77;5.22;;;7.50;99.90;;;;;;20470234;28;20113;-44
2022/01/16 15:43:29;;;;;;;11.57;5.28;;;7.60;99.90;;;;;;20474380;28;20050;-44
2022/01/16 15:53:29;;;;;;;10.15;4.53;;;7.50;99.90;;;;;;20472309;28;20137;-44
2022/01/16 16:03:31;;;;;;;11.07;4.95;;;7.40;99.90;;;;;;20476276;28;20043;-44
2022/01/16 16:13:31;;;;;;;11.07;3.15;;;7.30;99.90;;;;;;20486741;28;20483;-44
2022/01/16 16:23:32;;;;;;;7.85;3.58;;;7.20;99.90;;;;;;20458827;28;20051;-44
2022/01/16 16:33:33;;;;;;;11.25;4.30;;;7.10;99.90;;;;;;20432428;28;20567;-44
2022/01/16 16:43:33;;;;;;;9.77;3.95;;;7.10;99.90;;;;;;20474127;28;20051;-44
2022/01/16 16:53:37;;;;;;;10.82;3.83;;;7.20;99.90;;;;;;20467933;28;21185;-44
2022/01/16 17:03:38;;;;;;;9.52;3.47;;;7.10;99.90;;;;;;20486943;28;20076;-44
2022/01/16 17:13:38;;;;;;;8.83;3.73;;;7.20;99.90;;;;;;20496251;28;20317;-44
2022/01/16 17:23:39;;;;;;;9.23;4.07;;;7.10;99.90;;;;;;20436644;28;20294;-44
2022/01/16 17:33:39;;;;;;;11.20;3.87;;;7.00;99.90;;;;;;20478858;28;20887;-44
2022/01/16 17:43:43;;;;;;;13.02;4.68;;;6.90;99.90;;;;;;20456573;28;20831;-44
2022/01/16 17:53:44;;;;;;;12.85;5.05;;;6.80;99.90;;;;;;20457425;28;20051;-44
2022/01/16 18:03:44;;;;;;;8.48;3.75;;;6.80;99.90;;;;;;20451531;28;20125;-44
2022/01/16 18:13:46;;;;;;;18.27;4.50;;;6.80;99.90;;;;;;20460108;28;20091;-44
2022/01/16 18:23:47;;;;;;;9.27;3.08;;;6.80;99.90;;;;;;20461238;28;20031;-44
2022/01/16 18:33:48;;;;;;;9.40;4.05;;;6.80;99.90;;;;;;20469916;28;20098;-44
2022/01/16 18:43:49;;;;;;;8.35;3.30;;;6.80;99.90;;;;;;20431059;28;20458;-44
2022/01/16 18:53:51;;;;;;;7.00;3.20;;;6.80;99.90;;;;;;20469600;28;20043;-44
2022/01/16 19:03:52;;;;;;;6.22;3.22;;;6.90;99.90;;;;;;20461275;28;20030;-44
2022/01/16 19:13:54;;;;;;;6.15;3.20;;;6.80;99.90;;;;;;20489097;28;20048;-44
2022/01/16 19:23:54;;;;;;;10.93;2.97;;;6.80;99.90;;;;;;20474282;28;20514;-44
2022/01/16 19:33:58;;;;;;;8.97;4.00;;;6.80;99.90;;;;;;20476260;28;20603;-44
2022/01/16 19:43:58;;;;;;;7.20;3.72;;;6.80;99.90;;;;;;20480169;28;20322;-44
2022/01/16 19:54:00;;;;;;;17.63;4.07;;;6.90;99.90;;;;;;20484019;28;20043;-44
2022/01/16 20:04:00;;;;;;;10.40;2.95;;;6.90;99.90;;;;;;20502400;28;20352;-44
2022/01/16 20:14:02;;;;;;;14.10;3.72;;;6.90;99.90;;;;;;20483141;28;20051;-44
2022/01/16 20:24:02;;;;;;;8.00;3.50;;;7.00;99.90;;;;;;20479001;28;20048;-44
2022/01/16 20:34:03;;;;;;;6.38;2.65;;;7.00;99.90;;;;;;20472505;28;20050;-44
2022/01/16 20:44:04;;;;;;;16.27;2.80;;;7.10;99.90;;;;;;20466948;28;20043;-44
2022/01/16 20:54:08;;;;;;;8.63;2.97;;;7.10;99.90;;;;;;20477333;28;20522;-44
2022/01/16 21:04:09;;;;;;;8.82;3.42;;;7.10;99.90;;;;;;20461179;28;20557;-44
2022/01/16 21:14:10;;;;;;;11.95;2.40;;;7.10;99.90;;;;;;20478689;28;20059;-44
2022/01/16 21:24:11;;;;;;;7.20;2.30;;;7.20;99.90;;;;;;20471465;28;20043;-44
2022/01/16 21:34:12;;;;;;;13.27;3.08;;;7.30;99.90;;;;;;20471536;28;20054;-44
2022/01/16 21:44:12;;;;;;;7.80;2.03;;;7.30;99.90;;;;;;20477444;28;20175;-44
2022/01/16 21:54:13;;;;;;;10.05;2.33;;;7.30;99.90;;;;;;20471377;28;20302;-44
2022/01/16 22:04:14;;;;;;;7.25;1.88;;;7.30;99.90;;;;;;20470708;28;20515;-44
2022/01/16 22:14:15;;;;;;;4.50;1.15;;;7.20;99.90;;;;;;20472758;28;20117;-44
2022/01/16 22:24:15;;;;;;;3.57;1.03;;;7.20;99.90;;;;;;20469174;28;20676;-44
2022/01/16 22:34:16;;;;;;;8.23;1.43;;;7.20;99.90;;;;;;20470059;28;20310;-44
2022/01/16 22:44:17;;;;;;;2.45;0.80;;;7.10;99.90;;;;;;20462887;28;20591;-44
2022/01/16 22:54:19;;;;;;;4.22;0.70;;;7.10;99.90;;;;;;20457839;28;20050;-44
2022/01/16 23:04:20;;;;;;;5.28;0.63;;;7.00;99.90;;;;;;20466254;28;20542;-44
2022/01/16 23:14:21;;;;;;;2.67;0.68;;;7.00;99.90;;;;;;20468566;28;20550;-44
2022/01/16 23:24:23;;;;;;;4.82;0.60;;;7.00;99.90;;;;;;20452232;28;20085;-44
2022/01/16 23:34:23;;;;;;;6.55;0.85;;;7.00;99.90;;;;;;20465997;28;20055;-44
2022/01/16 23:44:28;;;;;;;3.27;0.60;;;7.10;99.90;;;;;;20448754;28;20074;-44
2022/01/16 23:54:29;;;;;;;6.25;1.08;;;7.00;99.90;;;;;;20466784;28;20764;-44
